Ashville, New York
Current Conditions -  °F | °C
As of 5:15 PM on Wednesday 28 Jan 2015 (Local Time) from KJHW Reporting Station
Clear Clear  
Wind Chill: 21°   Ceiling: Unl
Heat Index: 21°   Visibility: 10mi
Dew Point:   Wind: 3mph
Humidity: 42%   Direction: 230°SW
Pressure: 30.23"   Gusts: NA
Location:  42.1°N, 79.38°W
Report Text: KJHW 282215Z 23003KT 10SM CLR M06/M17 A3023 RMK AO1
Loading
Personal Weather Stations






























Interactive Weather Map New forecast layout! Learn more

10-Day Weather Forecast

Advertisements
Track Severe Weather on mobile